createdAt,value
2018-07-06T00:00:01.560Z,99.99
2018-07-06T00:01:01.303Z,99.99
2018-07-06T00:02:01.557Z,99.99
2018-07-06T00:03:01.303Z,99.99
2018-07-06T00:04:01.559Z,99.99
2018-07-06T00:05:01.563Z,99.99
2018-07-06T00:06:01.571Z,99.99
2018-07-06T00:07:01.309Z,99.99
2018-07-06T00:08:01.565Z,99.99
2018-07-06T00:09:01.317Z,99.99
2018-07-06T00:10:01.316Z,99.99
2018-07-06T00:11:01.676Z,99.99
2018-07-06T00:12:01.572Z,99.99
2018-07-06T00:13:01.322Z,99.99
2018-07-06T00:14:01.323Z,99.99
2018-07-06T00:15:01.570Z,99.99
2018-07-06T00:16:01.571Z,99.99
2018-07-06T00:17:01.322Z,99.99
2018-07-06T00:18:01.588Z,99.99
2018-07-06T00:19:01.577Z,99.99
2018-07-06T00:20:01.626Z,99.99
2018-07-06T00:21:01.590Z,99.99
2018-07-06T00:22:01.590Z,99.99
2018-07-06T00:23:01.334Z,99.99
2018-07-06T00:24:01.597Z,99.99
2018-07-06T00:25:01.585Z,99.99
2018-07-06T00:26:01.590Z,99.99
2018-07-06T00:27:02.653Z,99.99
2018-07-06T00:28:01.344Z,99.99
2018-07-06T00:29:01.591Z,99.99
2018-07-06T00:30:01.595Z,99.99
2018-07-06T00:31:01.596Z,99.99
2018-07-06T00:32:01.597Z,99.99
2018-07-06T00:33:01.602Z,99.99
2018-07-06T00:34:01.600Z,99.99
2018-07-06T00:35:01.603Z,99.99
2018-07-06T00:36:01.609Z,99.99
2018-07-06T00:37:01.604Z,99.99
2018-07-06T00:38:01.603Z,99.99
2018-07-06T00:39:01.347Z,99.99
2018-07-06T00:40:01.623Z,99.99
2018-07-06T00:41:01.604Z,99.99
2018-07-06T00:42:01.366Z,99.99
2018-07-06T00:43:01.357Z,99.99
2018-07-06T00:44:01.619Z,99.99
2018-07-06T00:45:01.613Z,99.99
2018-07-06T00:46:01.361Z,99.99
2018-07-06T00:47:01.628Z,99.99
2018-07-06T00:48:01.616Z,99.99
2018-07-06T00:49:01.625Z,99.99
2018-07-06T00:50:01.618Z,99.99
2018-07-06T00:51:01.379Z,99.99
2018-07-06T00:52:01.620Z,99.99
2018-07-06T00:53:01.619Z,99.99
2018-07-06T00:54:01.627Z,99.99
2018-07-06T00:55:01.644Z,99.99
2018-07-06T00:56:01.374Z,99.99
2018-07-06T00:57:01.652Z,99.99
2018-07-06T00:58:01.379Z,99.99
2018-07-06T00:59:01.634Z,99.99
2018-07-06T01:00:01.381Z,99.99
2018-07-06T01:01:01.632Z,99.99
2018-07-06T01:02:01.758Z,99.99
2018-07-06T01:03:01.382Z,99.99
2018-07-06T01:04:01.645Z,99.99
2018-07-06T01:05:01.385Z,99.99
2018-07-06T01:06:01.644Z,99.99
2018-07-06T01:07:01.685Z,99.99
2018-07-06T01:08:01.645Z,99.99
2018-07-06T01:09:01.391Z,99.99
2018-07-06T01:10:01.395Z,99.99
2018-07-06T01:11:01.658Z,99.99
2018-07-06T01:12:01.651Z,99.99
2018-07-06T01:13:01.654Z,99.99
2018-07-06T01:14:01.656Z,99.99
2018-07-06T01:15:01.407Z,99.99
2018-07-06T01:16:01.659Z,99.99
2018-07-06T01:17:01.678Z,99.99
2018-07-06T01:18:01.655Z,99.99
2018-07-06T01:19:01.655Z,99.99
2018-07-06T01:20:01.406Z,99.99
2018-07-06T01:21:01.663Z,99.99
2018-07-06T01:22:01.665Z,99.99
2018-07-06T01:23:01.413Z,99.99
2018-07-06T01:24:01.408Z,99.99
2018-07-06T01:25:01.664Z,99.99
2018-07-06T01:26:01.661Z,99.99
2018-07-06T01:27:01.414Z,99.99
2018-07-06T01:28:01.671Z,99.99
2018-07-06T01:29:01.688Z,99.99
2018-07-06T01:30:01.667Z,99.99
2018-07-06T01:31:01.425Z,99.99
2018-07-06T01:32:01.424Z,99.99
2018-07-06T01:33:01.418Z,99.99
2018-07-06T01:34:01.679Z,99.99
2018-07-06T01:35:01.673Z,99.99
2018-07-06T01:36:01.687Z,99.99
2018-07-06T01:37:01.680Z,99.99
2018-07-06T01:38:01.683Z,99.99
2018-07-06T01:39:01.683Z,99.99
2018-07-06T01:40:01.684Z,99.99
2018-07-06T01:41:01.683Z,99.99
2018-07-06T01:42:01.453Z,99.99
2018-07-06T01:43:01.700Z,99.99
2018-07-06T01:44:01.457Z,99.99
2018-07-06T01:45:01.712Z,99.99
2018-07-06T01:46:01.444Z,99.99
2018-07-06T01:47:01.697Z,99.99
2018-07-06T01:48:01.442Z,99.99
2018-07-06T01:49:01.698Z,99.99
2018-07-06T01:50:01.704Z,99.99
2018-07-06T01:51:01.448Z,99.99
2018-07-06T01:52:01.697Z,99.99
2018-07-06T01:53:01.703Z,99.99
2018-07-06T01:54:01.701Z,99.99
2018-07-06T01:55:01.704Z,99.99
2018-07-06T01:56:01.448Z,99.99
2018-07-06T01:57:01.461Z,99.99
2018-07-06T01:58:01.703Z,99.99
2018-07-06T01:59:01.708Z,99.99
2018-07-06T02:00:01.712Z,99.99
2018-07-06T02:01:01.454Z,99.99
2018-07-06T02:02:01.711Z,99.99
2018-07-06T02:03:01.476Z,99.99
2018-07-06T02:04:01.455Z,99.99
2018-07-06T02:05:01.457Z,99.99
2018-07-06T02:06:01.720Z,99.99
2018-07-06T02:07:01.721Z,99.99
2018-07-06T02:08:01.713Z,99.99
2018-07-06T02:09:01.461Z,99.99
2018-07-06T02:10:01.723Z,99.99
2018-07-06T02:11:01.474Z,99.99
2018-07-06T02:12:01.724Z,99.99
2018-07-06T02:13:01.721Z,99.99
2018-07-06T02:14:01.716Z,99.99
2018-07-06T02:15:01.719Z,99.99
2018-07-06T02:16:01.720Z,99.99
2018-07-06T02:17:01.719Z,99.99
2018-07-06T02:18:01.722Z,99.99
2018-07-06T02:19:01.728Z,99.99
2018-07-06T02:20:01.743Z,99.99
2018-07-06T02:21:01.473Z,99.99
2018-07-06T02:22:01.726Z,99.99
2018-07-06T02:23:01.726Z,99.99
2018-07-06T02:24:01.477Z,99.99
2018-07-06T02:25:01.724Z,99.99
2018-07-06T02:26:01.494Z,99.99
2018-07-06T02:27:01.731Z,99.99
2018-07-06T02:28:01.489Z,99.99
2018-07-06T02:29:01.739Z,99.99
2018-07-06T02:30:01.735Z,99.99
2018-07-06T02:31:01.738Z,99.99
2018-07-06T02:32:01.497Z,99.99
2018-07-06T02:33:01.736Z,99.99
2018-07-06T02:34:01.483Z,99.99
2018-07-06T02:35:01.752Z,99.99
2018-07-06T02:36:01.736Z,99.99
2018-07-06T02:37:01.764Z,99.99
2018-07-06T02:38:01.744Z,99.99
2018-07-06T02:39:01.509Z,99.99
2018-07-06T02:40:01.490Z,99.99
2018-07-06T02:41:01.748Z,99.99
2018-07-06T02:42:01.747Z,99.99
2018-07-06T02:43:01.757Z,99.99
2018-07-06T02:44:01.750Z,99.99
2018-07-06T02:45:01.772Z,99.99
2018-07-06T02:46:01.499Z,99.99
2018-07-06T02:47:01.506Z,99.99
2018-07-06T02:48:01.773Z,99.99
2018-07-06T02:49:01.757Z,99.99
2018-07-06T02:50:01.752Z,99.99
2018-07-06T02:51:01.752Z,99.99
2018-07-06T02:52:01.755Z,99.99
2018-07-06T02:53:01.766Z,99.99
2018-07-06T02:54:01.764Z,99.99
2018-07-06T02:55:01.819Z,99.99
2018-07-06T02:56:01.765Z,99.99
2018-07-06T02:57:01.771Z,99.99
2018-07-06T02:58:01.759Z,99.99
2018-07-06T02:59:01.769Z,99.99
2018-07-06T03:00:01.760Z,99.99
2018-07-06T03:01:01.769Z,99.99
2018-07-06T03:02:01.778Z,99.99
2018-07-06T03:03:01.766Z,99.99
2018-07-06T03:04:01.769Z,99.99
2018-07-06T03:05:01.770Z,99.99
2018-07-06T03:06:01.516Z,99.99
2018-07-06T03:07:01.519Z,99.99
2018-07-06T03:08:01.778Z,99.99
2018-07-06T03:09:01.769Z,99.99
2018-07-06T03:10:01.817Z,99.99
2018-07-06T03:11:01.777Z,99.99
2018-07-06T03:12:01.540Z,99.99
2018-07-06T03:13:01.525Z,99.99
2018-07-06T03:14:01.710Z,99.99
2018-07-06T03:15:01.783Z,99.99
2018-07-06T03:16:01.772Z,99.99
2018-07-06T03:17:01.810Z,99.99
2018-07-06T03:18:01.523Z,99.99
2018-07-06T03:19:01.538Z,99.99
2018-07-06T03:20:01.776Z,99.99
2018-07-06T03:21:01.529Z,99.99
2018-07-06T03:22:01.777Z,99.99
2018-07-06T03:23:01.816Z,99.99
2018-07-06T03:24:01.780Z,99.99
2018-07-06T03:25:01.782Z,99.99
2018-07-06T03:26:01.528Z,99.99
2018-07-06T03:27:01.782Z,99.99
2018-07-06T03:28:01.701Z,99.99
2018-07-06T03:29:01.793Z,99.99
2018-07-06T03:30:01.564Z,99.99
2018-07-06T03:31:01.801Z,99.99
2018-07-06T03:32:01.788Z,99.99
2018-07-06T03:33:01.542Z,99.99
2018-07-06T03:34:01.535Z,99.99
2018-07-06T03:35:01.794Z,99.99
2018-07-06T03:36:01.792Z,99.99
2018-07-06T03:37:01.792Z,99.99
2018-07-06T03:38:01.540Z,99.99
2018-07-06T03:39:01.799Z,99.99
2018-07-06T03:40:01.563Z,99.99
2018-07-06T03:41:01.819Z,99.99
2018-07-06T03:42:01.792Z,99.99
2018-07-06T03:43:01.541Z,99.99
2018-07-06T03:44:01.550Z,99.99
2018-07-06T03:45:01.840Z,99.99
2018-07-06T03:46:01.564Z,99.99
2018-07-06T03:47:01.802Z,99.99
2018-07-06T03:48:01.613Z,99.99
2018-07-06T03:49:01.801Z,99.99
2018-07-06T03:50:01.810Z,99.99
2018-07-06T03:51:01.826Z,99.99
2018-07-06T03:52:01.830Z,99.99
2018-07-06T03:53:01.835Z,99.99
2018-07-06T03:54:01.555Z,99.99
2018-07-06T03:55:01.998Z,99.99
2018-07-06T03:56:01.563Z,99.99
2018-07-06T03:57:01.830Z,99.99
2018-07-06T03:58:01.815Z,99.99
2018-07-06T03:59:01.832Z,99.99
2018-07-06T04:00:01.828Z,99.99
2018-07-06T04:01:01.894Z,99.99
2018-07-06T04:02:01.575Z,99.99
2018-07-06T04:03:01.578Z,99.99
2018-07-06T04:04:01.831Z,99.99
2018-07-06T04:05:01.824Z,99.99
2018-07-06T04:06:01.838Z,99.99
2018-07-06T04:07:01.830Z,99.99
2018-07-06T04:08:01.846Z,99.99
2018-07-06T04:09:01.573Z,99.99
2018-07-06T04:10:01.828Z,99.99
2018-07-06T04:11:01.573Z,99.99
2018-07-06T04:12:01.833Z,99.99
2018-07-06T04:13:01.577Z,99.99
2018-07-06T04:14:01.843Z,99.99
2018-07-06T04:15:01.578Z,99.99
2018-07-06T04:16:01.922Z,99.99
2018-07-06T04:17:01.849Z,99.99
2018-07-06T04:18:01.856Z,99.99
2018-07-06T04:19:01.844Z,99.99
2018-07-06T04:20:01.844Z,99.99
2018-07-06T04:21:01.590Z,99.99
2018-07-06T04:22:01.843Z,99.99
2018-07-06T04:23:01.588Z,99.99
2018-07-06T04:24:01.845Z,99.99
2018-07-06T04:25:01.850Z,99.99
2018-07-06T04:26:01.847Z,99.99
2018-07-06T04:27:01.844Z,99.99
2018-07-06T04:28:02.643Z,99.99
2018-07-06T04:29:01.855Z,99.99
2018-07-06T04:30:01.850Z,99.99
2018-07-06T04:31:01.846Z,99.99
2018-07-06T04:32:01.850Z,99.99
2018-07-06T04:33:01.592Z,99.99
2018-07-06T04:34:01.601Z,99.99
2018-07-06T04:35:01.857Z,99.99
2018-07-06T04:36:02.007Z,99.99
2018-07-06T04:37:01.851Z,99.99
2018-07-06T04:38:01.854Z,99.99
2018-07-06T04:39:01.860Z,99.99
2018-07-06T04:40:01.858Z,99.99
2018-07-06T04:41:01.862Z,99.99
2018-07-06T04:42:01.862Z,99.99
2018-07-06T04:43:01.603Z,99.99
2018-07-06T04:44:01.860Z,99.99
2018-07-06T04:45:01.861Z,99.99
2018-07-06T04:46:01.607Z,99.99
2018-07-06T04:47:01.612Z,99.99
2018-07-06T04:48:01.868Z,99.99
2018-07-06T04:49:01.864Z,99.99
2018-07-06T04:50:01.621Z,99.99
2018-07-06T04:51:01.943Z,99.99
2018-07-06T04:52:01.875Z,99.99
2018-07-06T04:53:01.876Z,99.99
2018-07-06T04:54:01.893Z,99.99
2018-07-06T04:55:01.619Z,99.99
2018-07-06T04:56:01.879Z,99.99
2018-07-06T04:57:01.634Z,99.99
2018-07-06T04:58:01.886Z,99.99
2018-07-06T04:59:01.630Z,99.99
2018-07-06T05:00:01.638Z,99.99
2018-07-06T05:01:01.911Z,99.99
2018-07-06T05:02:01.898Z,99.99
2018-07-06T05:03:01.887Z,99.99
2018-07-06T05:04:01.894Z,99.99
2018-07-06T05:05:01.638Z,99.99
2018-07-06T05:06:01.893Z,99.99
2018-07-06T05:07:01.900Z,99.99
2018-07-06T05:08:01.641Z,99.99
2018-07-06T05:09:01.638Z,99.99
2018-07-06T05:10:01.900Z,99.99
2018-07-06T05:11:01.900Z,99.99
2018-07-06T05:12:01.897Z,99.99
2018-07-06T05:13:01.896Z,99.99
2018-07-06T05:14:01.647Z,99.99
2018-07-06T05:15:01.658Z,99.99
2018-07-06T05:16:01.650Z,99.99
2018-07-06T05:17:01.762Z,99.99
2018-07-06T05:18:01.654Z,99.99
2018-07-06T05:19:01.654Z,99.99
2018-07-06T05:20:01.912Z,99.99
2018-07-06T05:21:01.661Z,99.99
2018-07-06T05:22:01.922Z,99.99
2018-07-06T05:23:01.659Z,99.99
2018-07-06T05:24:01.919Z,99.99
2018-07-06T05:25:01.672Z,99.99
2018-07-06T05:26:01.917Z,99.99
2018-07-06T05:27:01.673Z,99.99
2018-07-06T05:28:01.931Z,99.99
2018-07-06T05:29:01.671Z,99.99
2018-07-06T05:30:01.926Z,99.99
2018-07-06T05:31:01.679Z,99.99
2018-07-06T05:32:02.022Z,99.99
2018-07-06T05:33:01.937Z,99.99
2018-07-06T05:34:01.928Z,99.99
2018-07-06T05:35:01.683Z,99.99
2018-07-06T05:36:01.927Z,99.99
2018-07-06T05:37:01.683Z,99.99
2018-07-06T05:38:01.687Z,99.99
2018-07-06T05:39:01.954Z,99.99
2018-07-06T05:40:01.691Z,99.99
2018-07-06T05:41:01.697Z,99.99
2018-07-06T05:42:01.952Z,99.99
2018-07-06T05:43:01.953Z,99.99
2018-07-06T05:44:01.956Z,99.99
2018-07-06T05:45:01.752Z,99.99
2018-07-06T05:46:01.955Z,99.99
2018-07-06T05:47:01.954Z,99.99
2018-07-06T05:48:02.107Z,99.99
2018-07-06T05:49:01.953Z,99.99
2018-07-06T05:50:01.963Z,99.99
2018-07-06T05:51:01.962Z,99.99
2018-07-06T05:52:01.965Z,99.99
2018-07-06T05:53:01.714Z,99.99
2018-07-06T05:54:01.712Z,99.99
2018-07-06T05:55:01.973Z,99.99
2018-07-06T05:56:01.726Z,99.99
2018-07-06T05:57:01.977Z,99.99
2018-07-06T05:58:02.006Z,99.99
2018-07-06T05:59:01.976Z,99.99
2018-07-06T06:00:01.991Z,99.99
2018-07-06T06:01:01.991Z,99.99
2018-07-06T06:02:01.997Z,99.99
2018-07-06T06:03:01.984Z,99.99
2018-07-06T06:04:01.740Z,99.99
2018-07-06T06:05:01.992Z,99.99
2018-07-06T06:06:01.742Z,99.99
2018-07-06T06:07:01.991Z,99.99
2018-07-06T06:08:01.742Z,99.99
2018-07-06T06:09:01.990Z,99.99
2018-07-06T06:10:01.993Z,99.99
2018-07-06T06:11:01.743Z,99.99
2018-07-06T06:12:02.010Z,99.99
2018-07-06T06:13:01.999Z,99.99
2018-07-06T06:14:01.999Z,99.99
2018-07-06T06:15:01.749Z,99.99
2018-07-06T06:16:02.039Z,99.99
2018-07-06T06:17:02.019Z,99.99
2018-07-06T06:18:02.013Z,99.99
2018-07-06T06:19:02.016Z,99.99
2018-07-06T06:20:02.035Z,99.99
2018-07-06T06:21:02.015Z,99.99
2018-07-06T06:22:02.036Z,99.99
2018-07-06T06:23:02.021Z,99.99
2018-07-06T06:24:01.768Z,99.99
2018-07-06T06:25:02.038Z,99.99
2018-07-06T06:26:01.776Z,99.99
2018-07-06T06:27:02.042Z,99.99
2018-07-06T06:28:02.028Z,99.99
2018-07-06T06:29:02.026Z,99.99
2018-07-06T06:30:02.030Z,99.99
2018-07-06T06:31:02.055Z,99.99
2018-07-06T06:32:02.023Z,99.99
2018-07-06T06:33:02.190Z,99.99
2018-07-06T06:34:02.199Z,99.99
2018-07-06T06:35:02.065Z,99.99
2018-07-06T06:36:01.784Z,99.99
2018-07-06T06:37:02.043Z,99.99
2018-07-06T06:38:01.792Z,99.99
2018-07-06T06:39:02.043Z,99.99
2018-07-06T06:40:02.051Z,99.99
2018-07-06T06:41:02.045Z,99.99
2018-07-06T06:42:01.800Z,99.99
2018-07-06T06:43:02.047Z,99.99
2018-07-06T06:44:02.052Z,99.99
2018-07-06T06:45:01.801Z,99.99
2018-07-06T06:46:02.051Z,99.99
2018-07-06T06:47:02.055Z,99.99
2018-07-06T06:48:01.806Z,99.99
2018-07-06T06:49:02.064Z,99.99
2018-07-06T06:50:02.069Z,99.99
2018-07-06T06:51:01.806Z,99.99
2018-07-06T06:52:02.083Z,99.99
2018-07-06T06:53:02.205Z,99.99
2018-07-06T06:54:02.063Z,99.99
2018-07-06T06:55:01.818Z,99.99
2018-07-06T06:56:02.068Z,99.99
2018-07-06T06:57:02.071Z,99.99
2018-07-06T06:58:02.069Z,99.99
2018-07-06T06:59:02.144Z,99.99
2018-07-06T07:00:02.065Z,99.99
2018-07-06T07:01:02.199Z,99.99
2018-07-06T07:02:01.827Z,99.99
2018-07-06T07:03:02.077Z,99.99
2018-07-06T07:04:02.079Z,99.99
2018-07-06T07:05:02.098Z,99.99
2018-07-06T07:06:01.832Z,99.99
2018-07-06T07:07:02.100Z,99.99
2018-07-06T07:08:01.851Z,99.99
2018-07-06T07:09:02.090Z,99.99
2018-07-06T07:10:01.839Z,99.99
2018-07-06T07:11:02.083Z,99.99
2018-07-06T07:12:02.100Z,99.99
2018-07-06T07:13:01.841Z,99.99
2018-07-06T07:14:02.176Z,99.99
2018-07-06T07:15:01.849Z,99.99
2018-07-06T07:16:01.855Z,99.99
2018-07-06T07:17:02.092Z,99.99
2018-07-06T07:18:02.099Z,99.99
2018-07-06T07:19:01.843Z,99.99
2018-07-06T07:20:01.846Z,99.99
2018-07-06T07:21:02.170Z,99.99
2018-07-06T07:22:02.100Z,99.99
2018-07-06T07:23:02.100Z,99.99
2018-07-06T07:24:01.855Z,99.99
2018-07-06T07:25:01.856Z,99.99
2018-07-06T07:26:02.113Z,99.99
2018-07-06T07:27:02.113Z,99.99
2018-07-06T07:28:02.116Z,99.99
2018-07-06T07:29:01.868Z,99.99
2018-07-06T07:30:02.230Z,99.99
2018-07-06T07:31:02.118Z,99.99
2018-07-06T07:32:02.129Z,99.99
2018-07-06T07:33:02.138Z,99.99
2018-07-06T07:34:02.124Z,99.99
2018-07-06T07:35:02.133Z,99.99
2018-07-06T07:36:02.128Z,99.99
2018-07-06T07:37:02.142Z,99.99
2018-07-06T07:38:02.137Z,99.99
2018-07-06T07:39:02.424Z,99.99
2018-07-06T07:40:02.132Z,99.99
2018-07-06T07:41:01.886Z,99.99
2018-07-06T07:42:02.141Z,99.99
2018-07-06T07:43:02.141Z,99.99
2018-07-06T07:44:02.145Z,99.99
2018-07-06T07:45:02.161Z,99.99
2018-07-06T07:46:02.142Z,99.99
2018-07-06T07:47:02.147Z,99.99
2018-07-06T07:48:01.905Z,99.99
2018-07-06T07:49:01.894Z,99.99
2018-07-06T07:50:02.147Z,99.99
2018-07-06T07:51:02.161Z,99.99
2018-07-06T07:52:02.165Z,99.99
2018-07-06T07:53:02.152Z,99.99
2018-07-06T07:54:02.166Z,99.99
2018-07-06T07:55:02.220Z,99.99
2018-07-06T07:56:02.166Z,99.99
2018-07-06T07:57:02.176Z,99.99
2018-07-06T07:58:01.930Z,99.99
2018-07-06T07:59:02.172Z,99.99
2018-07-06T08:00:01.919Z,99.99
2018-07-06T08:01:02.601Z,99.99
2018-07-06T08:02:02.268Z,99.99
2018-07-06T08:03:02.174Z,99.99
2018-07-06T08:04:01.924Z,99.99
2018-07-06T08:05:02.199Z,99.99
2018-07-06T08:06:01.925Z,99.99
2018-07-06T08:07:02.189Z,99.99
2018-07-06T08:08:02.184Z,99.99
2018-07-06T08:09:02.186Z,99.99
2018-07-06T08:10:01.937Z,99.99
2018-07-06T08:11:01.954Z,99.99
2018-07-06T08:12:02.197Z,99.99
2018-07-06T08:13:01.966Z,99.99
2018-07-06T08:14:04.911Z,99.99
2018-07-06T08:15:02.197Z,99.99
2018-07-06T08:16:02.204Z,99.99
2018-07-06T08:17:01.953Z,99.99
2018-07-06T08:18:02.216Z,99.99
2018-07-06T08:19:02.221Z,99.99
2018-07-06T08:20:02.211Z,99.99
2018-07-06T08:21:02.215Z,99.99
2018-07-06T08:22:01.976Z,99.99
2018-07-06T08:23:02.217Z,99.99
2018-07-06T08:24:01.978Z,99.99
2018-07-06T08:25:02.230Z,99.99
2018-07-06T08:26:02.231Z,99.99
2018-07-06T08:27:02.232Z,99.99
2018-07-06T08:28:02.238Z,99.99
2018-07-06T08:29:02.000Z,99.99
2018-07-06T08:30:01.992Z,99.99
2018-07-06T08:31:01.996Z,99.99
2018-07-06T08:32:02.244Z,99.99
2018-07-06T08:33:02.259Z,99.99
2018-07-06T08:34:02.003Z,99.99
2018-07-06T08:35:02.266Z,99.99
2018-07-06T08:36:02.051Z,99.99
2018-07-06T08:37:02.265Z,99.99
2018-07-06T08:38:02.265Z,99.99
2018-07-06T08:39:02.293Z,99.99
2018-07-06T08:40:02.275Z,99.99
2018-07-06T08:41:02.278Z,99.99
2018-07-06T08:42:02.279Z,99.99
2018-07-06T08:43:02.282Z,99.99
2018-07-06T08:44:02.285Z,99.99
2018-07-06T08:45:02.626Z,99.99
2018-07-06T08:46:02.309Z,99.99
2018-07-06T08:47:02.303Z,99.99
2018-07-06T08:48:02.315Z,99.99
2018-07-06T08:49:02.310Z,99.99
2018-07-06T08:50:02.063Z,99.99
2018-07-06T08:51:02.316Z,99.99
2018-07-06T08:52:02.312Z,99.99
2018-07-06T08:53:02.314Z,99.99
2018-07-06T08:54:02.320Z,99.99
2018-07-06T08:55:02.323Z,99.6
2018-07-06T08:56:02.080Z,99.21
2018-07-06T08:57:02.342Z,97.24
2018-07-06T08:58:02.354Z,94.72
2018-07-06T08:59:02.092Z,94.57
2018-07-06T09:00:02.344Z,94.09
2018-07-06T09:01:02.338Z,93.61
2018-07-06T09:02:02.094Z,93.9
2018-07-06T09:03:02.354Z,94.24
2018-07-06T09:04:02.565Z,93.85
2018-07-06T09:05:02.385Z,92.79
2018-07-06T09:06:02.401Z,93.76
2018-07-06T09:07:02.388Z,93.76
2018-07-06T09:08:02.131Z,95.78
2018-07-06T09:09:02.385Z,95.2
2018-07-06T09:10:02.401Z,95.68
2018-07-06T09:11:02.138Z,94.72
2018-07-06T09:12:02.140Z,93.37
2018-07-06T09:13:02.553Z,92.55
2018-07-06T09:14:02.411Z,91.97
2018-07-06T09:15:02.453Z,91.29
2018-07-06T09:16:02.410Z,90.13
2018-07-06T09:17:02.425Z,90.81
2018-07-06T09:18:02.437Z,90.13
2018-07-06T09:19:02.429Z,89.94
2018-07-06T09:20:03.082Z,91.43
2018-07-06T09:21:02.426Z,90.95
2018-07-06T09:22:02.431Z,90.03
2018-07-06T09:23:02.442Z,90.37
2018-07-06T09:24:02.456Z,90.52
2018-07-06T09:25:02.453Z,90.03
2018-07-06T09:26:03.685Z,88.39
2018-07-06T09:27:02.458Z,90.03
2018-07-06T09:28:02.461Z,90.23
2018-07-06T09:29:02.460Z,90.03
2018-07-06T09:30:02.513Z,89.75
2018-07-06T09:31:02.225Z,89.94
2018-07-06T09:32:02.484Z,90.33
2018-07-06T09:33:02.222Z,90.91
2018-07-06T09:34:02.233Z,91.87
2018-07-06T09:35:02.489Z,91.39
2018-07-06T09:36:02.487Z,92.07
2018-07-06T09:37:02.493Z,90.42
2018-07-06T09:38:02.252Z,91.39
2018-07-06T09:39:02.245Z,90.47
2018-07-06T09:40:02.506Z,89.89
2018-07-06T09:41:02.525Z,88.67
2018-07-06T09:42:02.261Z,88.87
2018-07-06T09:43:02.258Z,86.06
2018-07-06T09:44:02.543Z,85.87
2018-07-06T09:45:02.540Z,86.2
2018-07-06T09:46:02.536Z,85.58
2018-07-06T09:47:02.532Z,86.16
2018-07-06T09:48:02.541Z,85.97
2018-07-06T09:49:02.553Z,86.45
2018-07-06T09:50:02.561Z,86.16
2018-07-06T09:51:02.851Z,86.99
2018-07-06T09:52:02.564Z,87.47
2018-07-06T09:53:02.572Z,87.85
2018-07-06T09:54:02.573Z,87.66
2018-07-06T09:55:02.568Z,88.43
2018-07-06T09:56:02.567Z,88.53
2018-07-06T09:57:02.320Z,87.95
2018-07-06T09:58:02.626Z,87.18
2018-07-06T09:59:02.328Z,89.15
2018-07-06T10:00:02.587Z,83.88
2018-07-06T10:01:02.594Z,88.91
2018-07-06T10:02:02.592Z,87.46
2018-07-06T10:03:02.605Z,83.15
2018-07-06T10:04:02.612Z,80.34
2018-07-06T10:05:02.361Z,78.54
2018-07-06T10:06:02.861Z,81.73
2018-07-06T10:07:02.638Z,83.15
2018-07-06T10:08:02.625Z,82.47
2018-07-06T10:09:02.372Z,80.24
2018-07-06T10:10:02.635Z,80.28
2018-07-06T10:11:02.829Z,79.7
2018-07-06T10:12:02.649Z,77.47
2018-07-06T10:13:02.659Z,75.83
2018-07-06T10:14:02.668Z,74.96
2018-07-06T10:15:02.660Z,75.15
2018-07-06T10:16:02.420Z,73.99
2018-07-06T10:17:02.678Z,76.46
2018-07-06T10:18:02.673Z,74.66
2018-07-06T10:19:02.425Z,72.44
2018-07-06T10:20:02.427Z,72.28
2018-07-06T10:21:02.690Z,71.22
2018-07-06T10:22:02.799Z,70.18
2018-07-06T10:23:02.702Z,69.7
2018-07-06T10:54:36.773Z,66.11
2018-07-06T10:55:36.759Z,66.02
2018-07-06T10:56:36.517Z,65.34
2018-07-06T10:57:36.519Z,66.4
2018-07-06T10:58:36.525Z,67.37
2018-07-06T10:59:36.514Z,67.08
2018-07-06T11:00:36.528Z,65.56
2018-07-06T11:01:36.775Z,64.5
2018-07-06T11:02:36.779Z,63.72
2018-07-06T11:03:36.783Z,64.59
2018-07-06T11:04:36.824Z,63.82
2018-07-06T11:05:36.542Z,63.72
2018-07-06T11:06:36.540Z,63.53
2018-07-06T11:07:36.551Z,63.62
2018-07-06T11:08:36.581Z,63.82
2018-07-06T11:09:36.830Z,63.78
2018-07-06T11:10:36.569Z,65.05
2018-07-06T11:11:36.601Z,66.66
2018-07-06T11:12:36.572Z,67.34
2018-07-06T11:13:36.840Z,67.5
2018-07-06T11:14:36.838Z,67.6
2018-07-06T11:15:36.832Z,68.21
2018-07-06T11:16:36.844Z,68.66
2018-07-06T11:17:36.844Z,68.56
2018-07-06T11:18:36.862Z,68.47
2018-07-06T11:19:36.612Z,68.47
2018-07-06T11:20:36.859Z,68.37
2018-07-06T11:21:36.862Z,68.56
2018-07-06T11:22:36.634Z,70.01
2018-07-06T11:23:36.890Z,68.47
2018-07-06T11:24:36.877Z,67.3
2018-07-06T11:25:36.880Z,66.72
2018-07-06T11:26:36.899Z,70.01
2018-07-06T11:27:36.640Z,75.73
2018-07-06T11:28:36.653Z,79.52
2018-07-06T11:29:36.896Z,81.32
2018-07-06T11:30:36.896Z,82.93
2018-07-06T11:31:36.668Z,84.72
2018-07-06T11:32:36.680Z,86.27
2018-07-06T11:33:36.673Z,87.52
2018-07-06T11:34:36.671Z,88.64
2018-07-06T11:35:36.945Z,87.29
2018-07-06T11:36:36.928Z,87.96
2018-07-06T11:37:36.938Z,88.93
2018-07-06T11:38:36.938Z,89.17
2018-07-06T11:39:36.945Z,91.11
2018-07-06T11:40:36.700Z,92.07
2018-07-06T11:41:36.702Z,91.3
2018-07-06T11:42:36.985Z,91.88
2018-07-06T11:43:36.964Z,92.16
2018-07-06T11:44:36.957Z,91.11
2018-07-06T11:45:36.970Z,90.91
2018-07-06T11:46:36.960Z,90.53
2018-07-06T11:47:36.715Z,90.09
2018-07-06T11:48:36.717Z,90.09
2018-07-06T11:49:36.974Z,88.45
2018-07-06T11:50:36.980Z,88.45
2018-07-06T11:51:36.980Z,85.98
2018-07-06T11:52:36.734Z,84.63
2018-07-06T11:53:36.740Z,84.72
2018-07-06T11:54:36.743Z,84.43
2018-07-06T11:55:36.995Z,85.11
2018-07-06T11:56:37.011Z,83.37
2018-07-06T11:57:36.760Z,82.25
2018-07-06T11:58:37.039Z,81.67
2018-07-06T11:59:37.016Z,81.67
2018-07-06T12:00:37.016Z,82.68
2018-07-06T12:01:37.013Z,82.29
2018-07-06T12:02:36.791Z,79.97
2018-07-06T12:03:37.039Z,80.26
2018-07-06T12:04:37.263Z,78.81
2018-07-06T12:05:37.035Z,78.81
2018-07-06T12:06:37.036Z,78.56
2018-07-06T12:07:37.040Z,78.27
2018-07-06T12:08:37.046Z,78.36
2018-07-06T12:09:37.062Z,78.66
2018-07-06T12:10:37.061Z,78.46
2018-07-06T12:11:37.069Z,78.08
2018-07-06T12:12:37.067Z,79.68
2018-07-06T12:13:37.080Z,84.22
2018-07-06T12:14:36.820Z,87.57
2018-07-06T12:15:37.159Z,89.65
2018-07-06T12:16:37.080Z,88.59
2018-07-06T12:17:37.081Z,84.16
2018-07-06T12:18:37.088Z,87.1
2018-07-06T12:19:37.095Z,89.37
2018-07-06T12:20:37.097Z,90.48
2018-07-06T12:21:36.844Z,91.26
2018-07-06T12:22:37.101Z,89.23
2018-07-06T12:23:37.108Z,91.36
2018-07-06T12:24:37.113Z,88.65
2018-07-06T12:25:37.107Z,94.24
2018-07-06T12:26:36.860Z,99.69
2018-07-06T12:27:37.117Z,99.99
2018-07-06T12:28:37.118Z,99.99
2018-07-06T12:29:37.124Z,99.99
2018-07-06T12:30:37.126Z,99.84
2018-07-06T12:31:37.149Z,90.88
2018-07-06T12:32:37.139Z,93.76
2018-07-06T12:33:37.146Z,96.85
2018-07-06T12:34:37.935Z,96.75
2018-07-06T12:35:36.897Z,96.8
2018-07-06T12:36:37.187Z,97.57
2018-07-06T12:37:36.907Z,97.47
2018-07-06T12:38:36.894Z,96.75
2018-07-06T12:39:36.909Z,96.17
2018-07-06T12:40:37.154Z,95.4
2018-07-06T12:41:37.285Z,97.14
2018-07-06T12:42:36.902Z,96.22
2018-07-06T12:43:37.163Z,95.16
2018-07-06T12:44:37.163Z,92.65
2018-07-06T12:45:36.914Z,91.78
2018-07-06T12:46:37.179Z,91.01
2018-07-06T12:47:37.170Z,92.84
2018-07-06T12:48:37.245Z,93.42
2018-07-06T12:49:37.186Z,90.28
2018-07-06T12:50:36.934Z,92.69
2018-07-06T12:51:36.934Z,86.03
2018-07-06T12:52:37.188Z,85.4
2018-07-06T12:53:37.191Z,83.7
2018-07-06T12:54:37.191Z,75.97
2018-07-06T12:55:37.199Z,77.22
2018-07-06T12:56:36.953Z,76.59
2018-07-06T12:57:36.957Z,74.98
2018-07-06T12:58:37.505Z,73.43
2018-07-06T12:59:36.972Z,74.21
2018-07-06T13:00:37.266Z,75.46
2018-07-06T13:01:37.231Z,73.91
2018-07-06T13:02:37.233Z,75.07
2018-07-06T13:03:36.979Z,75.46
2018-07-06T13:04:37.237Z,74.82
2018-07-06T13:05:37.246Z,73.85
2018-07-06T13:06:36.990Z,72.69
2018-07-06T13:07:37.245Z,72.3
2018-07-06T13:08:37.000Z,69.11
2018-07-06T13:09:37.256Z,68.63
2018-07-06T13:10:37.341Z,71.72
2018-07-06T13:11:37.013Z,68.91
2018-07-06T13:12:37.270Z,70.95
2018-07-06T13:13:37.281Z,72.3
2018-07-06T13:14:37.279Z,73.57
2018-07-06T13:15:37.039Z,73.27
2018-07-06T13:16:37.287Z,73.53
2018-07-06T13:17:37.297Z,72.79
2018-07-06T13:18:37.297Z,72.11
2018-07-06T13:19:37.082Z,72.79
2018-07-06T13:20:37.307Z,75.7
2018-07-06T13:21:37.314Z,75.21
2018-07-06T13:22:37.066Z,76.46
2018-07-06T13:23:37.326Z,76.86